Cfl Performer — PHLY — position and weather

sailwx.info

Track history (hours):
 
Tides and Currents Weather Stations Pressure Air Temp Water Temp Dewpoint Dewpoint Depression Visibility Wind Speed Wind Dir Waves Ship Positions

Cfl Performer

Last reported at 2016-Jun-30 17:33 UTC. Time now 2016-Jun-30 17:45 UTC.
Position N 37°32' E 010°26'.

Length 117 m; draft 6.3 m.

Type: Cargo ship. MMSI: 244989000.

Date/timePositionNaut miles runAvg speedWind from/ knotsBaromVisibWave heightAir tempDewpointWater temp
2016-Jun-30 17:33N 37°32' E 010°26'9 9.3
2016-Jun-30 16:33N 37°33' E 010°14'10 9.9
2016-Jun-30 15:33N 37°33' E 010°02'1010.1
2016-Jun-30 14:32N 37°31' E 009°49'1010.1
2016-Jun-30 13:33N 37°29' E 009°37'1010.3
2016-Jun-30 12:33N 37°27' E 009°24'1010.3
2016-Jun-30 11:33N 37°24' E 009°12'14310.1
2016-Jun-29 21:22N 37°27' E 006°12'910.0
2016-Jun-29 20:26N 37°26' E 005°60'8 9.6
2016-Jun-29 19:33N 37°26' E 005°49'10 9.5
2016-Jun-29 18:33N 37°25' E 005°37'10 9.4
2016-Jun-29 17:29N 37°25' E 005°25'9 9.5
2016-Jun-29 16:32N 37°24' E 005°13'38 9.5
2016-Jun-29 12:30N 37°21' E 004°26'4010.1
2016-Jun-29 08:31N 37°18' E 003°35'2410.0
2016-Jun-29 06:08N 37°16' E 003°05'6 9.8
2016-Jun-29 05:31N 37°14' E 002°58'11 9.8
2016-Jun-29 04:22N 37°12' E 002°44'1810.1
2016-Jun-29 02:33N 37°08' E 002°21'9 9.5
2016-Jun-29 01:34N 37°06' E 002°10'5510.1
2016-Jun-28 20:05N 36°55' E 001°02'510.3
2016-Jun-28 19:33N 36°53' E 000°55'1310.2
2016-Jun-28 18:14N 36°51' E 000°39'6 9.4
2016-Jun-28 17:33N 36°49' E 000°31'9 9.1
2016-Jun-28 16:33N 36°47' E 000°20'10 9.5
2016-Jun-28 15:31N 36°45' E 000°08'4210.3
2016-Jun-28 11:28N 36°36' W 000°43'225 9.8
2016-Jun-27 12:33N 36°06' W 005°20'4 3.5
2016-Jun-27 11:33N 36°09' W 005°22'0 0.0
2016-Jun-27 10:30N 36°09' W 005°22'0 0.0
2016-Jun-27 09:33N 36°09' W 005°22'0 0.0
2016-Jun-27 08:33N 36°09' W 005°22'0 0.0
2016-Jun-27 07:33N 36°09' W 005°22'2 1.9
2016-Jun-27 06:33N 36°07' W 005°22'4 4.0
2016-Jun-27 05:33N 36°03' W 005°21'9 9.3
2016-Jun-27 04:33N 35°57' W 005°30'200 9.5
2016-Jun-26 07:29N 36°46' W 009°31'48 9.6
2016-Jun-26 02:28N 37°32' W 009°46'10 9.6
2016-Jun-26 01:24N 37°42' W 009°49'17 9.5
2016-Jun-25 23:33N 37°59' W 009°54'10 9.9
2016-Jun-25 22:32N 38°09' W 009°57'1010.1
2016-Jun-25 21:33N 38°19' W 009°60'12 9.9
2016-Jun-25 20:18N 38°31' W 010°03'7 9.9
2016-Jun-25 19:33N 38°38' W 010°05'10 9.8
2016-Jun-25 18:33N 38°48' W 010°06'  
2016-Jun-23 00:28N 48°56' W 005°44'2311.7
2016-Jun-22 22:29N 49°14' W 005°23'1611.5
2016-Jun-22 21:05N 49°29' W 005°12'2610.0
2016-Jun-22 18:29N 49°52' W 004°54'9 9.5
2016-Jun-22 17:33N 50°00' W 004°49'1010.1
2016-Jun-22 16:33N 50°09' W 004°41'11 9.4
2016-Jun-22 15:22N 50°20' W 004°38'1 0.7
2016-Jun-22 14:31N 50°21' W 004°38'0 0.0
2016-Jun-22 13:31N 50°21' W 004°38'0 0.0
2016-Jun-22 12:31N 50°21' W 004°38'0 0.0
2016-Jun-22 11:31N 50°21' W 004°38'0 0.0
2016-Jun-22 10:22N 50°21' W 004°38'0 0.0
2016-Jun-22 09:31N 50°21' W 004°38'0 0.0
2016-Jun-22 08:31N 50°21' W 004°38'0 0.0
2016-Jun-22 07:31N 50°21' W 004°38'0 0.0
2016-Jun-22 06:31N 50°21' W 004°38'0 0.0
2016-Jun-22 05:31N 50°21' W 004°38'0 0.0
2016-Jun-22 04:31N 50°21' W 004°38'0 0.0
2016-Jun-22 03:25N 50°21' W 004°38'0 0.0
2016-Jun-22 02:31N 50°21' W 004°38'0 0.0
2016-Jun-22 01:28N 50°21' W 004°38'0 0.0
2016-Jun-22 00:31N 50°21' W 004°38'0 0.0
2016-Jun-21 23:31N 50°21' W 004°38'0 0.0
2016-Jun-21 22:31N 50°21' W 004°38'0 0.0
2016-Jun-21 21:31N 50°21' W 004°38'0 0.0
2016-Jun-21 20:31N 50°21' W 004°38'0 0.0
2016-Jun-21 19:31N 50°21' W 004°38'0 0.0
2016-Jun-21 18:33N 50°21' W 004°38'1 0.5
2016-Jun-21 17:21N 50°20' W 004°38'4 5.1
2016-Jun-21 16:33N 50°18' W 004°33'1110.9
2016-Jun-21 15:33N 50°17' W 004°16'7 0.9
2016-Jun-21 08:03N 50°22' W 004°08'0 0.0
2016-Jun-21 07:15N 50°22' W 004°08'0 0.0
2016-Jun-21 00:33N 50°22' W 004°08'0 0.0
2016-Jun-20 23:27N 50°22' W 004°08'0 0.0
2016-Jun-20 19:15N 50°22' W 004°08'0 0.0
2016-Jun-20 18:18N 50°22' W 004°08'  
Track history (hours):
 
Tides and Currents Weather Stations Pressure Air Temp Water Temp Dewpoint Dewpoint Depression Visibility Wind Speed Wind Dir Waves Ship Positions

Cfl Performer

Last reported at 2016-Jun-30 17:33 UTC. Time now 2016-Jun-30 17:45 UTC.
Position N 37°32' E 010°26'.

Length 117 m; draft 6.3 m.

Type: Cargo ship. MMSI: 244989000.

Date/timePositionNaut miles runAvg speedWind from/ knotsBaromVisibWave heightAir tempDewpointWater temp
2016-Jun-30 17:33N 37°32' E 010°26'9 9.3
2016-Jun-30 16:33N 37°33' E 010°14'10 9.9
2016-Jun-30 15:33N 37°33' E 010°02'1010.1
2016-Jun-30 14:32N 37°31' E 009°49'1010.1
2016-Jun-30 13:33N 37°29' E 009°37'1010.3
2016-Jun-30 12:33N 37°27' E 009°24'1010.3
2016-Jun-30 11:33N 37°24' E 009°12'14310.1
2016-Jun-29 21:22N 37°27' E 006°12'910.0
2016-Jun-29 20:26N 37°26' E 005°60'8 9.6
2016-Jun-29 19:33N 37°26' E 005°49'10 9.5
2016-Jun-29 18:33N 37°25' E 005°37'10 9.4
2016-Jun-29 17:29N 37°25' E 005°25'9 9.5
2016-Jun-29 16:32N 37°24' E 005°13'38 9.5
2016-Jun-29 12:30N 37°21' E 004°26'4010.1
2016-Jun-29 08:31N 37°18' E 003°35'2410.0
2016-Jun-29 06:08N 37°16' E 003°05'6 9.8
2016-Jun-29 05:31N 37°14' E 002°58'11 9.8
2016-Jun-29 04:22N 37°12' E 002°44'1810.1
2016-Jun-29 02:33N 37°08' E 002°21'9 9.5
2016-Jun-29 01:34N 37°06' E 002°10'5510.1
2016-Jun-28 20:05N 36°55' E 001°02'510.3
2016-Jun-28 19:33N 36°53' E 000°55'1310.2
2016-Jun-28 18:14N 36°51' E 000°39'6 9.4
2016-Jun-28 17:33N 36°49' E 000°31'9 9.1
2016-Jun-28 16:33N 36°47' E 000°20'10 9.5
2016-Jun-28 15:31N 36°45' E 000°08'4210.3
2016-Jun-28 11:28N 36°36' W 000°43'225 9.8
2016-Jun-27 12:33N 36°06' W 005°20'4 3.5
2016-Jun-27 11:33N 36°09' W 005°22'0 0.0
2016-Jun-27 10:30N 36°09' W 005°22'0 0.0
2016-Jun-27 09:33N 36°09' W 005°22'0 0.0
2016-Jun-27 08:33N 36°09' W 005°22'0 0.0
2016-Jun-27 07:33N 36°09' W 005°22'2 1.9
2016-Jun-27 06:33N 36°07' W 005°22'4 4.0
2016-Jun-27 05:33N 36°03' W 005°21'9 9.3
2016-Jun-27 04:33N 35°57' W 005°30'200 9.5
2016-Jun-26 07:29N 36°46' W 009°31'48 9.6
2016-Jun-26 02:28N 37°32' W 009°46'10 9.6
2016-Jun-26 01:24N 37°42' W 009°49'17 9.5
2016-Jun-25 23:33N 37°59' W 009°54'10 9.9
2016-Jun-25 22:32N 38°09' W 009°57'1010.1
2016-Jun-25 21:33N 38°19' W 009°60'12 9.9
2016-Jun-25 20:18N 38°31' W 010°03'7 9.9
2016-Jun-25 19:33N 38°38' W 010°05'10 9.8
2016-Jun-25 18:33N 38°48' W 010°06'  
2016-Jun-23 00:28N 48°56' W 005°44'2311.7
2016-Jun-22 22:29N 49°14' W 005°23'1611.5
2016-Jun-22 21:05N 49°29' W 005°12'2610.0
2016-Jun-22 18:29N 49°52' W 004°54'9 9.5
2016-Jun-22 17:33N 50°00' W 004°49'1010.1
2016-Jun-22 16:33N 50°09' W 004°41'11 9.4
2016-Jun-22 15:22N 50°20' W 004°38'1 0.7
2016-Jun-22 14:31N 50°21' W 004°38'0 0.0
2016-Jun-22 13:31N 50°21' W 004°38'0 0.0
2016-Jun-22 12:31N 50°21' W 004°38'0 0.0
2016-Jun-22 11:31N 50°21' W 004°38'0 0.0
2016-Jun-22 10:22N 50°21' W 004°38'0 0.0
2016-Jun-22 09:31N 50°21' W 004°38'0 0.0
2016-Jun-22 08:31N 50°21' W 004°38'0 0.0
2016-Jun-22 07:31N 50°21' W 004°38'0 0.0
2016-Jun-22 06:31N 50°21' W 004°38'0 0.0
2016-Jun-22 05:31N 50°21' W 004°38'0 0.0
2016-Jun-22 04:31N 50°21' W 004°38'0 0.0
2016-Jun-22 03:25N 50°21' W 004°38'0 0.0
2016-Jun-22 02:31N 50°21' W 004°38'0 0.0
2016-Jun-22 01:28N 50°21' W 004°38'0 0.0
2016-Jun-22 00:31N 50°21' W 004°38'0 0.0
2016-Jun-21 23:31N 50°21' W 004°38'0 0.0
2016-Jun-21 22:31N 50°21' W 004°38'0 0.0
2016-Jun-21 21:31N 50°21' W 004°38'0 0.0
2016-Jun-21 20:31N 50°21' W 004°38'0 0.0
2016-Jun-21 19:31N 50°21' W 004°38'0 0.0
2016-Jun-21 18:33N 50°21' W 004°38'1 0.5
2016-Jun-21 17:21N 50°20' W 004°38'4 5.1
2016-Jun-21 16:33N 50°18' W 004°33'1110.9
2016-Jun-21 15:33N 50°17' W 004°16'7 0.9
2016-Jun-21 08:03N 50°22' W 004°08'0 0.0
2016-Jun-21 07:15N 50°22' W 004°08'0 0.0
2016-Jun-21 00:33N 50°22' W 004°08'0 0.0
2016-Jun-20 23:27N 50°22' W 004°08'0 0.0
2016-Jun-20 19:15N 50°22' W 004°08'0 0.0
2016-Jun-20 18:18N 50°22' W 004°08'  

Dump ship's entire track history